LFPG METAR and TAF | Updated Today

LFPG METAR

Charles de Gaulle International Airport

Observation time: 4 min. ago

LFPG 061930Z 03010KT 020V100 CAVOK 04/00 Q1037 NOSIG

Need help? Read our tutorial on how to read METARs or read the parsed version below.

Charles de Gaulle International Airport (LFPG) METAR

  • Weather conditions on Mon, 06 Feb 2023 19:30:00 +0000 (4 min. ago):
  • Present conditions: Dry
  • Clouds: Clear skies
  • Visibility: Greater than 10 km
  • Wind: 30 degrees at 10 knots
  • Temperature: 4 celsius
  • Dew point: 0 celsius
  • Pressure: 1037 millibars
  • Remarks: None


Useful to know...

LFPG TAF

Charles de Gaulle International Airport

TAF LFPG 061700Z 0618/0724 04008KT CAVOK TX05/0715Z TNM01/0706Z PROB30 TEMPO 0702/0708 BKN004
Observation time: 2:34 hr. ago
Need help? Read our tutorial on how to read TAFs or read the parsed version below.

Parsed version of TAF for Charles de Gaulle International Airport (LFPG)

  • From 06 February at 18:00 UTC, to day 07 of the month at 24:00 UTC
  • Visibility: Greater than 10 km
  • Wind: 40 degrees at 8
  • Expected to arise temporarily, from 07 February at 02:00 UTC, to day 07 of the month at 08:00 UTC
    Probability of 30%
  • Clouds: Broken sky at 122 meters